<?xml version="1.0" encoding="UTF-8" standalone="no" ?>
<gpx xmlns="http://www.topografix.com/GPX/1/1" xmlns:xsi="http://www.w3.org/2001/XMLSchema-instance" xsi:schemaLocation="http://www.topografix.com/GPX/1/1 http://www.topografix.com/GPX/1/1/gpx.xsd" version="1.1" creator="VisuGPX - https://www.visugpx.com">
  <metadata>
    <name>Bures-Gif-sur-Yvette</name>
    <desc><![CDATA[Départ du parc de la Grande Maison à Bures, montée vers le viaduc des Fauvettes, descente vers Gometz le Châtel, tour de l'église, traversée de la forêt communale de Gif, descente vers le RER de Gif, puis retour par le côté gauche du bassin de retenue de Gif à la Grande Maison.]]></desc>
  </metadata>
  <trk>
    <name><![CDATA[Bures-Gif-sur-Yvette_1]]></name>
    <trkseg>
      <trkpt lat="48.69686" lon="2.15956">
        <ele>56</ele>
        <time>2017-03-17T14:03:02+01:00</time>
      </trkpt>
      <trkpt lat="48.69677" lon="2.15987">
        <ele>66</ele>
        <time>2017-03-17T14:03:32+01:00</time>
      </trkpt>
      <trkpt lat="48.69653" lon="2.15991">
        <ele>64</ele>
        <time>2017-03-17T14:03:53+01:00</time>
      </trkpt>
      <trkpt lat="48.6963" lon="2.15997">
        <ele>64</ele>
        <time>2017-03-17T14:04:12+01:00</time>
      </trkpt>
      <trkpt lat="48.69633" lon="2.15962">
        <ele>52</ele>
        <time>2017-03-17T14:05:11+01:00</time>
      </trkpt>
      <trkpt lat="48.69631" lon="2.15927">
        <ele>53</ele>
        <time>2017-03-17T14:05:27+01:00</time>
      </trkpt>
      <trkpt lat="48.6961" lon="2.15912">
        <ele>51</ele>
        <time>2017-03-17T14:05:53+01:00</time>
      </trkpt>
      <trkpt lat="48.69587" lon="2.1592">
        <ele>54</ele>
        <time>2017-03-17T14:06:12+01:00</time>
      </trkpt>
      <trkpt lat="48.69565" lon="2.1592">
        <ele>62</ele>
        <time>2017-03-17T14:07:41+01:00</time>
      </trkpt>
      <trkpt lat="48.69548" lon="2.15898">
        <ele>58</ele>
        <time>2017-03-17T14:07:59+01:00</time>
      </trkpt>
      <trkpt lat="48.69527" lon="2.15882">
        <ele>55</ele>
        <time>2017-03-17T14:08:15+01:00</time>
      </trkpt>
      <trkpt lat="48.69506" lon="2.15868">
        <ele>59</ele>
        <time>2017-03-17T14:08:31+01:00</time>
      </trkpt>
      <trkpt lat="48.69485" lon="2.15854">
        <ele>59</ele>
        <time>2017-03-17T14:08:47+01:00</time>
      </trkpt>
      <trkpt lat="48.69462" lon="2.15852">
        <ele>57</ele>
        <time>2017-03-17T14:09:54+01:00</time>
      </trkpt>
      <trkpt lat="48.69442" lon="2.15873">
        <ele>50</ele>
        <time>2017-03-17T14:10:10+01:00</time>
      </trkpt>
      <trkpt lat="48.69425" lon="2.15895">
        <ele>61</ele>
        <time>2017-03-17T14:11:07+01:00</time>
      </trkpt>
      <trkpt lat="48.69406" lon="2.15875">
        <ele>68</ele>
        <time>2017-03-17T14:11:28+01:00</time>
      </trkpt>
      <trkpt lat="48.69387" lon="2.15854">
        <ele>69</ele>
        <time>2017-03-17T14:12:05+01:00</time>
      </trkpt>
      <trkpt lat="48.69368" lon="2.15833">
        <ele>70</ele>
        <time>2017-03-17T14:12:21+01:00</time>
      </trkpt>
      <trkpt lat="48.69357" lon="2.15802">
        <ele>71</ele>
        <time>2017-03-17T14:12:39+01:00</time>
      </trkpt>
      <trkpt lat="48.69341" lon="2.15777">
        <ele>65</ele>
        <time>2017-03-17T14:13:05+01:00</time>
      </trkpt>
      <trkpt lat="48.69318" lon="2.15773">
        <ele>63</ele>
        <time>2017-03-17T14:13:21+01:00</time>
      </trkpt>
      <trkpt lat="48.693" lon="2.15793">
        <ele>67</ele>
        <time>2017-03-17T14:14:00+01:00</time>
      </trkpt>
      <trkpt lat="48.69286" lon="2.15821">
        <ele>72</ele>
        <time>2017-03-17T14:14:21+01:00</time>
      </trkpt>
      <trkpt lat="48.69269" lon="2.15844">
        <ele>74</ele>
        <time>2017-03-17T14:14:48+01:00</time>
      </trkpt>
      <trkpt lat="48.69252" lon="2.15867">
        <ele>72</ele>
        <time>2017-03-17T14:15:07+01:00</time>
      </trkpt>
      <trkpt lat="48.69234" lon="2.1589">
        <ele>74</ele>
        <time>2017-03-17T14:15:24+01:00</time>
      </trkpt>
      <trkpt lat="48.69216" lon="2.15912">
        <ele>79</ele>
        <time>2017-03-17T14:15:45+01:00</time>
      </trkpt>
      <trkpt lat="48.69199" lon="2.15935">
        <ele>78</ele>
        <time>2017-03-17T14:16:02+01:00</time>
      </trkpt>
      <trkpt lat="48.69177" lon="2.15937">
        <ele>87</ele>
        <time>2017-03-17T14:16:25+01:00</time>
      </trkpt>
      <trkpt lat="48.69159" lon="2.15958">
        <ele>96</ele>
        <time>2017-03-17T14:17:12+01:00</time>
      </trkpt>
      <trkpt lat="48.69137" lon="2.15947">
        <ele>90</ele>
        <time>2017-03-17T14:17:32+01:00</time>
      </trkpt>
      <trkpt lat="48.69116" lon="2.15933">
        <ele>97</ele>
        <time>2017-03-17T14:17:49+01:00</time>
      </trkpt>
      <trkpt lat="48.69098" lon="2.1591">
        <ele>93</ele>
        <time>2017-03-17T14:18:05+01:00</time>
      </trkpt>
      <trkpt lat="48.69085" lon="2.15883">
        <ele>92</ele>
        <time>2017-03-17T14:18:22+01:00</time>
      </trkpt>
      <trkpt lat="48.6907" lon="2.15856">
        <ele>93</ele>
        <time>2017-03-17T14:18:41+01:00</time>
      </trkpt>
      <trkpt lat="48.69054" lon="2.15831">
        <ele>89</ele>
        <time>2017-03-17T14:19:01+01:00</time>
      </trkpt>
      <trkpt lat="48.69032" lon="2.15823">
        <ele>98</ele>
        <time>2017-03-17T14:19:25+01:00</time>
      </trkpt>
      <trkpt lat="48.69009" lon="2.1583">
        <ele>104</ele>
        <time>2017-03-17T14:19:41+01:00</time>
      </trkpt>
      <trkpt lat="48.68987" lon="2.15819">
        <ele>94</ele>
        <time>2017-03-17T14:21:35+01:00</time>
      </trkpt>
      <trkpt lat="48.68965" lon="2.15809">
        <ele>101</ele>
        <time>2017-03-17T14:21:54+01:00</time>
      </trkpt>
      <trkpt lat="48.68944" lon="2.15795">
        <ele>101</ele>
        <time>2017-03-17T14:22:11+01:00</time>
      </trkpt>
      <trkpt lat="48.68923" lon="2.1578">
        <ele>96</ele>
        <time>2017-03-17T14:22:33+01:00</time>
      </trkpt>
      <trkpt lat="48.68902" lon="2.15767">
        <ele>97</ele>
        <time>2017-03-17T14:22:54+01:00</time>
      </trkpt>
      <trkpt lat="48.68879" lon="2.15766">
        <ele>92</ele>
        <time>2017-03-17T14:23:15+01:00</time>
      </trkpt>
      <trkpt lat="48.68862" lon="2.15743">
        <ele>96</ele>
        <time>2017-03-17T14:23:30+01:00</time>
      </trkpt>
      <trkpt lat="48.6884" lon="2.15733">
        <ele>100</ele>
        <time>2017-03-17T14:23:56+01:00</time>
      </trkpt>
      <trkpt lat="48.68818" lon="2.15742">
        <ele>101</ele>
        <time>2017-03-17T14:24:14+01:00</time>
      </trkpt>
      <trkpt lat="48.68796" lon="2.15734">
        <ele>107</ele>
        <time>2017-03-17T14:24:35+01:00</time>
      </trkpt>
      <trkpt lat="48.68776" lon="2.15753">
        <ele>113</ele>
        <time>2017-03-17T14:25:03+01:00</time>
      </trkpt>
      <trkpt lat="48.68758" lon="2.15777">
        <ele>110</ele>
        <time>2017-03-17T14:25:23+01:00</time>
      </trkpt>
      <trkpt lat="48.68741" lon="2.158">
        <ele>107</ele>
        <time>2017-03-17T14:26:02+01:00</time>
      </trkpt>
      <trkpt lat="48.68725" lon="2.15824">
        <ele>116</ele>
        <time>2017-03-17T14:26:27+01:00</time>
      </trkpt>
      <trkpt lat="48.68712" lon="2.15852">
        <ele>133</ele>
        <time>2017-03-17T14:27:03+01:00</time>
      </trkpt>
      <trkpt lat="48.68713" lon="2.15886">
        <ele>132</ele>
        <time>2017-03-17T14:27:39+01:00</time>
      </trkpt>
      <trkpt lat="48.68691" lon="2.15876">
        <ele>140</ele>
        <time>2017-03-17T14:28:18+01:00</time>
      </trkpt>
      <trkpt lat="48.68673" lon="2.15855">
        <ele>141</ele>
        <time>2017-03-17T14:28:35+01:00</time>
      </trkpt>
      <trkpt lat="48.68654" lon="2.15835">
        <ele>139</ele>
        <time>2017-03-17T14:28:54+01:00</time>
      </trkpt>
      <trkpt lat="48.68634" lon="2.15817">
        <ele>133</ele>
        <time>2017-03-17T14:29:10+01:00</time>
      </trkpt>
      <trkpt lat="48.68618" lon="2.15792">
        <ele>131</ele>
        <time>2017-03-17T14:29:28+01:00</time>
      </trkpt>
      <trkpt lat="48.68597" lon="2.15775">
        <ele>130</ele>
        <time>2017-03-17T14:29:49+01:00</time>
      </trkpt>
      <trkpt lat="48.68579" lon="2.15754">
        <ele>125</ele>
        <time>2017-03-17T14:30:11+01:00</time>
      </trkpt>
      <trkpt lat="48.68561" lon="2.15733">
        <ele>130</ele>
        <time>2017-03-17T14:30:30+01:00</time>
      </trkpt>
      <trkpt lat="48.68542" lon="2.15712">
        <ele>136</ele>
        <time>2017-03-17T14:30:46+01:00</time>
      </trkpt>
      <trkpt lat="48.68524" lon="2.1569">
        <ele>137</ele>
        <time>2017-03-17T14:31:02+01:00</time>
      </trkpt>
      <trkpt lat="48.68503" lon="2.15674">
        <ele>139</ele>
        <time>2017-03-17T14:31:22+01:00</time>
      </trkpt>
      <trkpt lat="48.68486" lon="2.15652">
        <ele>137</ele>
        <time>2017-03-17T14:31:40+01:00</time>
      </trkpt>
      <trkpt lat="48.68466" lon="2.15632">
        <ele>139</ele>
        <time>2017-03-17T14:32:02+01:00</time>
      </trkpt>
      <trkpt lat="48.68445" lon="2.15615">
        <ele>138</ele>
        <time>2017-03-17T14:32:21+01:00</time>
      </trkpt>
      <trkpt lat="48.68426" lon="2.15597">
        <ele>131</ele>
        <time>2017-03-17T14:32:45+01:00</time>
      </trkpt>
      <trkpt lat="48.68322" lon="2.15494">
        <ele>143</ele>
        <time>2017-03-17T14:34:16+01:00</time>
      </trkpt>
      <trkpt lat="48.683" lon="2.15485">
        <ele>138</ele>
        <time>2017-03-17T14:34:39+01:00</time>
      </trkpt>
      <trkpt lat="48.68278" lon="2.15472">
        <ele>137</ele>
        <time>2017-03-17T14:34:58+01:00</time>
      </trkpt>
      <trkpt lat="48.68256" lon="2.15459">
        <ele>134</ele>
        <time>2017-03-17T14:35:18+01:00</time>
      </trkpt>
      <trkpt lat="48.68234" lon="2.15449">
        <ele>136</ele>
        <time>2017-03-17T14:35:35+01:00</time>
      </trkpt>
      <trkpt lat="48.68213" lon="2.15433">
        <ele>140</ele>
        <time>2017-03-17T14:35:51+01:00</time>
      </trkpt>
      <trkpt lat="48.68191" lon="2.15423">
        <ele>140</ele>
        <time>2017-03-17T14:36:07+01:00</time>
      </trkpt>
      <trkpt lat="48.68169" lon="2.1541">
        <ele>142</ele>
        <time>2017-03-17T14:36:26+01:00</time>
      </trkpt>
      <trkpt lat="48.68147" lon="2.15397">
        <ele>147</ele>
        <time>2017-03-17T14:36:42+01:00</time>
      </trkpt>
      <trkpt lat="48.68125" lon="2.15387">
        <ele>143</ele>
        <time>2017-03-17T14:36:57+01:00</time>
      </trkpt>
      <trkpt lat="48.68102" lon="2.15378">
        <ele>142</ele>
        <time>2017-03-17T14:37:17+01:00</time>
      </trkpt>
      <trkpt lat="48.68081" lon="2.15365">
        <ele>145</ele>
        <time>2017-03-17T14:37:35+01:00</time>
      </trkpt>
      <trkpt lat="48.6806" lon="2.15351">
        <ele>142</ele>
        <time>2017-03-17T14:37:54+01:00</time>
      </trkpt>
      <trkpt lat="48.68038" lon="2.1534">
        <ele>148</ele>
        <time>2017-03-17T14:38:11+01:00</time>
      </trkpt>
      <trkpt lat="48.68016" lon="2.1533">
        <ele>150</ele>
        <time>2017-03-17T14:38:29+01:00</time>
      </trkpt>
      <trkpt lat="48.67994" lon="2.15325">
        <ele>148</ele>
        <time>2017-03-17T14:38:48+01:00</time>
      </trkpt>
      <trkpt lat="48.67973" lon="2.15308">
        <ele>144</ele>
        <time>2017-03-17T14:39:05+01:00</time>
      </trkpt>
      <trkpt lat="48.67951" lon="2.15301">
        <ele>141</ele>
        <time>2017-03-17T14:39:28+01:00</time>
      </trkpt>
      <trkpt lat="48.6793" lon="2.15283">
        <ele>143</ele>
        <time>2017-03-17T14:39:46+01:00</time>
      </trkpt>
      <trkpt lat="48.67908" lon="2.15275">
        <ele>142</ele>
        <time>2017-03-17T14:40:09+01:00</time>
      </trkpt>
      <trkpt lat="48.67889" lon="2.15256">
        <ele>136</ele>
        <time>2017-03-17T14:41:56+01:00</time>
      </trkpt>
      <trkpt lat="48.67868" lon="2.1524">
        <ele>136</ele>
        <time>2017-03-17T14:42:13+01:00</time>
      </trkpt>
      <trkpt lat="48.6785" lon="2.15219">
        <ele>138</ele>
        <time>2017-03-17T14:42:29+01:00</time>
      </trkpt>
      <trkpt lat="48.6783" lon="2.15199">
        <ele>134</ele>
        <time>2017-03-17T14:42:46+01:00</time>
      </trkpt>
      <trkpt lat="48.67808" lon="2.15192">
        <ele>136</ele>
        <time>2017-03-17T14:43:13+01:00</time>
      </trkpt>
      <trkpt lat="48.67789" lon="2.15168">
        <ele>137</ele>
        <time>2017-03-17T14:44:07+01:00</time>
      </trkpt>
      <trkpt lat="48.67774" lon="2.15143">
        <ele>128</ele>
        <time>2017-03-17T14:44:27+01:00</time>
      </trkpt>
      <trkpt lat="48.67753" lon="2.15127">
        <ele>130</ele>
        <time>2017-03-17T14:44:42+01:00</time>
      </trkpt>
      <trkpt lat="48.67735" lon="2.15106">
        <ele>126</ele>
        <time>2017-03-17T14:45:02+01:00</time>
      </trkpt>
      <trkpt lat="48.67717" lon="2.15083">
        <ele>130</ele>
        <time>2017-03-17T14:45:19+01:00</time>
      </trkpt>
      <trkpt lat="48.67702" lon="2.15058">
        <ele>135</ele>
        <time>2017-03-17T14:45:38+01:00</time>
      </trkpt>
      <trkpt lat="48.67687" lon="2.15033">
        <ele>139</ele>
        <time>2017-03-17T14:45:55+01:00</time>
      </trkpt>
      <trkpt lat="48.67671" lon="2.15005">
        <ele>137</ele>
        <time>2017-03-17T14:46:10+01:00</time>
      </trkpt>
      <trkpt lat="48.67657" lon="2.14978">
        <ele>144</ele>
        <time>2017-03-17T14:46:31+01:00</time>
      </trkpt>
      <trkpt lat="48.67646" lon="2.14947">
        <ele>148</ele>
        <time>2017-03-17T14:46:53+01:00</time>
      </trkpt>
      <trkpt lat="48.67632" lon="2.14919">
        <ele>143</ele>
        <time>2017-03-17T14:47:15+01:00</time>
      </trkpt>
      <trkpt lat="48.67619" lon="2.1489">
        <ele>138</ele>
        <time>2017-03-17T14:47:34+01:00</time>
      </trkpt>
      <trkpt lat="48.67598" lon="2.14874">
        <ele>137</ele>
        <time>2017-03-17T14:47:57+01:00</time>
      </trkpt>
      <trkpt lat="48.67619" lon="2.1486">
        <ele>147</ele>
        <time>2017-03-17T14:48:30+01:00</time>
      </trkpt>
      <trkpt lat="48.6764" lon="2.14846">
        <ele>145</ele>
        <time>2017-03-17T14:48:55+01:00</time>
      </trkpt>
      <trkpt lat="48.67661" lon="2.14834">
        <ele>142</ele>
        <time>2017-03-17T14:49:13+01:00</time>
      </trkpt>
      <trkpt lat="48.67677" lon="2.14808">
        <ele>140</ele>
        <time>2017-03-17T14:49:39+01:00</time>
      </trkpt>
      <trkpt lat="48.67689" lon="2.1478">
        <ele>137</ele>
        <time>2017-03-17T14:49:55+01:00</time>
      </trkpt>
      <trkpt lat="48.67706" lon="2.14757">
        <ele>134</ele>
        <time>2017-03-17T14:50:11+01:00</time>
      </trkpt>
      <trkpt lat="48.67725" lon="2.14739">
        <ele>135</ele>
        <time>2017-03-17T14:50:26+01:00</time>
      </trkpt>
      <trkpt lat="48.67739" lon="2.14709">
        <ele>140</ele>
        <time>2017-03-17T14:50:43+01:00</time>
      </trkpt>
      <trkpt lat="48.67756" lon="2.14686">
        <ele>141</ele>
        <time>2017-03-17T14:51:01+01:00</time>
      </trkpt>
      <trkpt lat="48.67765" lon="2.14655">
        <ele>139</ele>
        <time>2017-03-17T14:51:19+01:00</time>
      </trkpt>
      <trkpt lat="48.67777" lon="2.14624">
        <ele>145</ele>
        <time>2017-03-17T14:51:39+01:00</time>
      </trkpt>
      <trkpt lat="48.67788" lon="2.14591">
        <ele>142</ele>
        <time>2017-03-17T14:52:26+01:00</time>
      </trkpt>
      <trkpt lat="48.67797" lon="2.1456">
        <ele>141</ele>
        <time>2017-03-17T14:52:44+01:00</time>
      </trkpt>
      <trkpt lat="48.67797" lon="2.14526">
        <ele>141</ele>
        <time>2017-03-17T14:53:08+01:00</time>
      </trkpt>
      <trkpt lat="48.67776" lon="2.14513">
        <ele>135</ele>
        <time>2017-03-17T14:53:29+01:00</time>
      </trkpt>
      <trkpt lat="48.67758" lon="2.1449">
        <ele>149</ele>
        <time>2017-03-17T14:53:48+01:00</time>
      </trkpt>
      <trkpt lat="48.67739" lon="2.14471">
        <ele>143</ele>
        <time>2017-03-17T14:54:09+01:00</time>
      </trkpt>
      <trkpt lat="48.67718" lon="2.14453">
        <ele>147</ele>
        <time>2017-03-17T14:54:25+01:00</time>
      </trkpt>
      <trkpt lat="48.67699" lon="2.14434">
        <ele>147</ele>
        <time>2017-03-17T14:54:42+01:00</time>
      </trkpt>
      <trkpt lat="48.67679" lon="2.14415">
        <ele>148</ele>
        <time>2017-03-17T14:55:00+01:00</time>
      </trkpt>
      <trkpt lat="48.67661" lon="2.14394">
        <ele>143</ele>
        <time>2017-03-17T14:55:18+01:00</time>
      </trkpt>
      <trkpt lat="48.67642" lon="2.14373">
        <ele>148</ele>
        <time>2017-03-17T14:55:33+01:00</time>
      </trkpt>
      <trkpt lat="48.67629" lon="2.14345">
        <ele>152</ele>
        <time>2017-03-17T14:55:52+01:00</time>
      </trkpt>
      <trkpt lat="48.67618" lon="2.14315">
        <ele>151</ele>
        <time>2017-03-17T14:56:08+01:00</time>
      </trkpt>
      <trkpt lat="48.67601" lon="2.14289">
        <ele>149</ele>
        <time>2017-03-17T14:56:24+01:00</time>
      </trkpt>
      <trkpt lat="48.67583" lon="2.14268">
        <ele>150</ele>
        <time>2017-03-17T14:56:42+01:00</time>
      </trkpt>
      <trkpt lat="48.67587" lon="2.14233">
        <ele>150</ele>
        <time>2017-03-17T14:57:10+01:00</time>
      </trkpt>
      <trkpt lat="48.67601" lon="2.14204">
        <ele>148</ele>
        <time>2017-03-17T14:57:29+01:00</time>
      </trkpt>
      <trkpt lat="48.6761" lon="2.14172">
        <ele>153</ele>
        <time>2017-03-17T14:57:56+01:00</time>
      </trkpt>
      <trkpt lat="48.67621" lon="2.14142">
        <ele>147</ele>
        <time>2017-03-17T14:58:18+01:00</time>
      </trkpt>
      <trkpt lat="48.67643" lon="2.14132">
        <ele>132</ele>
        <time>2017-03-17T14:58:46+01:00</time>
      </trkpt>
      <trkpt lat="48.6765" lon="2.141">
        <ele>122</ele>
        <time>2017-03-17T15:00:26+01:00</time>
      </trkpt>
      <trkpt lat="48.6764" lon="2.14069">
        <ele>122</ele>
        <time>2017-03-17T15:00:47+01:00</time>
      </trkpt>
      <trkpt lat="48.6762" lon="2.14051">
        <ele>126</ele>
        <time>2017-03-17T15:01:13+01:00</time>
      </trkpt>
      <trkpt lat="48.676" lon="2.14032">
        <ele>137</ele>
        <time>2017-03-17T15:01:34+01:00</time>
      </trkpt>
      <trkpt lat="48.67584" lon="2.14007">
        <ele>131</ele>
        <time>2017-03-17T15:01:58+01:00</time>
      </trkpt>
      <trkpt lat="48.67565" lon="2.13989">
        <ele>132</ele>
        <time>2017-03-17T15:02:20+01:00</time>
      </trkpt>
      <trkpt lat="48.67545" lon="2.13971">
        <ele>133</ele>
        <time>2017-03-17T15:02:42+01:00</time>
      </trkpt>
      <trkpt lat="48.67545" lon="2.13937">
        <ele>134</ele>
        <time>2017-03-17T15:03:15+01:00</time>
      </trkpt>
      <trkpt lat="48.67543" lon="2.13902">
        <ele>144</ele>
        <time>2017-03-17T15:03:48+01:00</time>
      </trkpt>
      <trkpt lat="48.67565" lon="2.13898">
        <ele>144</ele>
        <time>2017-03-17T15:04:46+01:00</time>
      </trkpt>
      <trkpt lat="48.67586" lon="2.13915">
        <ele>144</ele>
        <time>2017-03-17T15:05:03+01:00</time>
      </trkpt>
      <trkpt lat="48.67609" lon="2.13926">
        <ele>149</ele>
        <time>2017-03-17T15:05:18+01:00</time>
      </trkpt>
      <trkpt lat="48.67632" lon="2.13936">
        <ele>151</ele>
        <time>2017-03-17T15:05:34+01:00</time>
      </trkpt>
      <trkpt lat="48.67656" lon="2.13944">
        <ele>146</ele>
        <time>2017-03-17T15:05:51+01:00</time>
      </trkpt>
      <trkpt lat="48.6768" lon="2.13943">
        <ele>144</ele>
        <time>2017-03-17T15:06:07+01:00</time>
      </trkpt>
      <trkpt lat="48.67704" lon="2.13941">
        <ele>139</ele>
        <time>2017-03-17T15:06:21+01:00</time>
      </trkpt>
      <trkpt lat="48.67727" lon="2.13937">
        <ele>143</ele>
        <time>2017-03-17T15:06:38+01:00</time>
      </trkpt>
      <trkpt lat="48.67739" lon="2.13966">
        <ele>141</ele>
        <time>2017-03-17T15:07:00+01:00</time>
      </trkpt>
      <trkpt lat="48.6776" lon="2.13978">
        <ele>141</ele>
        <time>2017-03-17T15:07:16+01:00</time>
      </trkpt>
      <trkpt lat="48.67781" lon="2.13994">
        <ele>139</ele>
        <time>2017-03-17T15:07:43+01:00</time>
      </trkpt>
      <trkpt lat="48.67795" lon="2.13967">
        <ele>135</ele>
        <time>2017-03-17T15:08:31+01:00</time>
      </trkpt>
      <trkpt lat="48.678" lon="2.13933">
        <ele>141</ele>
        <time>2017-03-17T15:09:01+01:00</time>
      </trkpt>
      <trkpt lat="48.67815" lon="2.13907">
        <ele>139</ele>
        <time>2017-03-17T15:09:22+01:00</time>
      </trkpt>
      <trkpt lat="48.67838" lon="2.13909">
        <ele>147</ele>
        <time>2017-03-17T15:09:42+01:00</time>
      </trkpt>
      <trkpt lat="48.67846" lon="2.13941">
        <ele>144</ele>
        <time>2017-03-17T15:10:21+01:00</time>
      </trkpt>
      <trkpt lat="48.67869" lon="2.13981">
        <ele>187</ele>
        <time>2017-03-17T15:17:23+01:00</time>
      </trkpt>
      <trkpt lat="48.67891" lon="2.1397">
        <ele>134</ele>
        <time>2017-03-17T15:18:25+01:00</time>
      </trkpt>
      <trkpt lat="48.67917" lon="2.13915">
        <ele>128</ele>
        <time>2017-03-17T15:20:33+01:00</time>
      </trkpt>
      <trkpt lat="48.67921" lon="2.13882">
        <ele>119</ele>
        <time>2017-03-17T15:20:59+01:00</time>
      </trkpt>
      <trkpt lat="48.6792" lon="2.13847">
        <ele>127</ele>
        <time>2017-03-17T15:21:18+01:00</time>
      </trkpt>
      <trkpt lat="48.67905" lon="2.13822">
        <ele>118</ele>
        <time>2017-03-17T15:21:47+01:00</time>
      </trkpt>
      <trkpt lat="48.67895" lon="2.13791">
        <ele>128</ele>
        <time>2017-03-17T15:22:11+01:00</time>
      </trkpt>
      <trkpt lat="48.67877" lon="2.1377">
        <ele>121</ele>
        <time>2017-03-17T15:22:34+01:00</time>
      </trkpt>
      <trkpt lat="48.67866" lon="2.13738">
        <ele>124</ele>
        <time>2017-03-17T15:22:52+01:00</time>
      </trkpt>
      <trkpt lat="48.67854" lon="2.13709">
        <ele>127</ele>
        <time>2017-03-17T15:23:12+01:00</time>
      </trkpt>
      <trkpt lat="48.67842" lon="2.1368">
        <ele>131</ele>
        <time>2017-03-17T15:23:30+01:00</time>
      </trkpt>
      <trkpt lat="48.67829" lon="2.1365">
        <ele>133</ele>
        <time>2017-03-17T15:23:47+01:00</time>
      </trkpt>
      <trkpt lat="48.67825" lon="2.13615">
        <ele>137</ele>
        <time>2017-03-17T15:24:08+01:00</time>
      </trkpt>
      <trkpt lat="48.67813" lon="2.13587">
        <ele>143</ele>
        <time>2017-03-17T15:24:30+01:00</time>
      </trkpt>
      <trkpt lat="48.67801" lon="2.13557">
        <ele>136</ele>
        <time>2017-03-17T15:24:51+01:00</time>
      </trkpt>
      <trkpt lat="48.67822" lon="2.13571">
        <ele>144</ele>
        <time>2017-03-17T15:25:22+01:00</time>
      </trkpt>
      <trkpt lat="48.67845" lon="2.13562">
        <ele>143</ele>
        <time>2017-03-17T15:25:46+01:00</time>
      </trkpt>
      <trkpt lat="48.67867" lon="2.13553">
        <ele>142</ele>
        <time>2017-03-17T15:26:04+01:00</time>
      </trkpt>
      <trkpt lat="48.67889" lon="2.13562">
        <ele>145</ele>
        <time>2017-03-17T15:26:22+01:00</time>
      </trkpt>
      <trkpt lat="48.67911" lon="2.13571">
        <ele>144</ele>
        <time>2017-03-17T15:26:41+01:00</time>
      </trkpt>
      <trkpt lat="48.67933" lon="2.13581">
        <ele>147</ele>
        <time>2017-03-17T15:26:57+01:00</time>
      </trkpt>
      <trkpt lat="48.67953" lon="2.13596">
        <ele>145</ele>
        <time>2017-03-17T15:27:11+01:00</time>
      </trkpt>
      <trkpt lat="48.67975" lon="2.13608">
        <ele>145</ele>
        <time>2017-03-17T15:27:26+01:00</time>
      </trkpt>
      <trkpt lat="48.67994" lon="2.13628">
        <ele>139</ele>
        <time>2017-03-17T15:27:39+01:00</time>
      </trkpt>
      <trkpt lat="48.68016" lon="2.1364">
        <ele>145</ele>
        <time>2017-03-17T15:27:55+01:00</time>
      </trkpt>
      <trkpt lat="48.68038" lon="2.13652">
        <ele>154</ele>
        <time>2017-03-17T15:28:11+01:00</time>
      </trkpt>
      <trkpt lat="48.6806" lon="2.13665">
        <ele>155</ele>
        <time>2017-03-17T15:28:28+01:00</time>
      </trkpt>
      <trkpt lat="48.68076" lon="2.13687">
        <ele>150</ele>
        <time>2017-03-17T15:28:45+01:00</time>
      </trkpt>
      <trkpt lat="48.68096" lon="2.13703">
        <ele>151</ele>
        <time>2017-03-17T15:28:58+01:00</time>
      </trkpt>
      <trkpt lat="48.68118" lon="2.13713">
        <ele>154</ele>
        <time>2017-03-17T15:29:12+01:00</time>
      </trkpt>
      <trkpt lat="48.68139" lon="2.13724">
        <ele>156</ele>
        <time>2017-03-17T15:29:28+01:00</time>
      </trkpt>
      <trkpt lat="48.68163" lon="2.13729">
        <ele>152</ele>
        <time>2017-03-17T15:29:44+01:00</time>
      </trkpt>
      <trkpt lat="48.68186" lon="2.13733">
        <ele>151</ele>
        <time>2017-03-17T15:30:11+01:00</time>
      </trkpt>
      <trkpt lat="48.6821" lon="2.13734">
        <ele>146</ele>
        <time>2017-03-17T15:30:29+01:00</time>
      </trkpt>
      <trkpt lat="48.68233" lon="2.13735">
        <ele>149</ele>
        <time>2017-03-17T15:30:45+01:00</time>
      </trkpt>
      <trkpt lat="48.68255" lon="2.13744">
        <ele>143</ele>
        <time>2017-03-17T15:31:01+01:00</time>
      </trkpt>
      <trkpt lat="48.68276" lon="2.13758">
        <ele>145</ele>
        <time>2017-03-17T15:31:16+01:00</time>
      </trkpt>
      <trkpt lat="48.68296" lon="2.13777">
        <ele>148</ele>
        <time>2017-03-17T15:31:33+01:00</time>
      </trkpt>
      <trkpt lat="48.68316" lon="2.13792">
        <ele>146</ele>
        <time>2017-03-17T15:31:53+01:00</time>
      </trkpt>
      <trkpt lat="48.68332" lon="2.13816">
        <ele>143</ele>
        <time>2017-03-17T15:32:14+01:00</time>
      </trkpt>
      <trkpt lat="48.68334" lon="2.13852">
        <ele>142</ele>
        <time>2017-03-17T15:32:43+01:00</time>
      </trkpt>
      <trkpt lat="48.68337" lon="2.13887">
        <ele>139</ele>
        <time>2017-03-17T15:33:00+01:00</time>
      </trkpt>
      <trkpt lat="48.68344" lon="2.1392">
        <ele>136</ele>
        <time>2017-03-17T15:33:21+01:00</time>
      </trkpt>
      <trkpt lat="48.68344" lon="2.13954">
        <ele>131</ele>
        <time>2017-03-17T15:33:40+01:00</time>
      </trkpt>
      <trkpt lat="48.68351" lon="2.13987">
        <ele>131</ele>
        <time>2017-03-17T15:34:01+01:00</time>
      </trkpt>
      <trkpt lat="48.68374" lon="2.13976">
        <ele>121</ele>
        <time>2017-03-17T15:34:22+01:00</time>
      </trkpt>
      <trkpt lat="48.68394" lon="2.13959">
        <ele>121</ele>
        <time>2017-03-17T15:34:56+01:00</time>
      </trkpt>
      <trkpt lat="48.68412" lon="2.13936">
        <ele>119</ele>
        <time>2017-03-17T15:35:15+01:00</time>
      </trkpt>
      <trkpt lat="48.68427" lon="2.13909">
        <ele>118</ele>
        <time>2017-03-17T15:35:33+01:00</time>
      </trkpt>
      <trkpt lat="48.68443" lon="2.13885">
        <ele>119</ele>
        <time>2017-03-17T15:35:52+01:00</time>
      </trkpt>
      <trkpt lat="48.68457" lon="2.13856">
        <ele>119</ele>
        <time>2017-03-17T15:36:10+01:00</time>
      </trkpt>
      <trkpt lat="48.6847" lon="2.13827">
        <ele>115</ele>
        <time>2017-03-17T15:36:33+01:00</time>
      </trkpt>
      <trkpt lat="48.68489" lon="2.13805">
        <ele>114</ele>
        <time>2017-03-17T15:36:53+01:00</time>
      </trkpt>
      <trkpt lat="48.68506" lon="2.13783">
        <ele>114</ele>
        <time>2017-03-17T15:37:11+01:00</time>
      </trkpt>
      <trkpt lat="48.68526" lon="2.13762">
        <ele>109</ele>
        <time>2017-03-17T15:37:33+01:00</time>
      </trkpt>
      <trkpt lat="48.68544" lon="2.13741">
        <ele>113</ele>
        <time>2017-03-17T15:37:51+01:00</time>
      </trkpt>
      <trkpt lat="48.68565" lon="2.1373">
        <ele>111</ele>
        <time>2017-03-17T15:38:11+01:00</time>
      </trkpt>
      <trkpt lat="48.6858" lon="2.13703">
        <ele>111</ele>
        <time>2017-03-17T15:38:30+01:00</time>
      </trkpt>
      <trkpt lat="48.68594" lon="2.13675">
        <ele>112</ele>
        <time>2017-03-17T15:38:59+01:00</time>
      </trkpt>
      <trkpt lat="48.68592" lon="2.13641">
        <ele>110</ele>
        <time>2017-03-17T15:39:20+01:00</time>
      </trkpt>
      <trkpt lat="48.68584" lon="2.13608">
        <ele>114</ele>
        <time>2017-03-17T15:39:39+01:00</time>
      </trkpt>
      <trkpt lat="48.6859" lon="2.13575">
        <ele>113</ele>
        <time>2017-03-17T15:40:44+01:00</time>
      </trkpt>
      <trkpt lat="48.686" lon="2.13543">
        <ele>117</ele>
        <time>2017-03-17T15:41:16+01:00</time>
      </trkpt>
      <trkpt lat="48.68619" lon="2.13523">
        <ele>113</ele>
        <time>2017-03-17T15:41:48+01:00</time>
      </trkpt>
      <trkpt lat="48.68634" lon="2.13497">
        <ele>120</ele>
        <time>2017-03-17T15:42:09+01:00</time>
      </trkpt>
      <trkpt lat="48.68646" lon="2.13468">
        <ele>127</ele>
        <time>2017-03-17T15:43:06+01:00</time>
      </trkpt>
      <trkpt lat="48.68659" lon="2.13439">
        <ele>134</ele>
        <time>2017-03-17T15:43:24+01:00</time>
      </trkpt>
      <trkpt lat="48.68665" lon="2.13405">
        <ele>137</ele>
        <time>2017-03-17T15:43:45+01:00</time>
      </trkpt>
      <trkpt lat="48.68678" lon="2.13377">
        <ele>139</ele>
        <time>2017-03-17T15:44:15+01:00</time>
      </trkpt>
      <trkpt lat="48.6869" lon="2.13347">
        <ele>136</ele>
        <time>2017-03-17T15:44:38+01:00</time>
      </trkpt>
      <trkpt lat="48.68698" lon="2.13315">
        <ele>146</ele>
        <time>2017-03-17T15:44:57+01:00</time>
      </trkpt>
      <trkpt lat="48.68715" lon="2.13293">
        <ele>144</ele>
        <time>2017-03-17T15:45:34+01:00</time>
      </trkpt>
      <trkpt lat="48.68737" lon="2.13298">
        <ele>155</ele>
        <time>2017-03-17T15:46:12+01:00</time>
      </trkpt>
      <trkpt lat="48.68743" lon="2.13333">
        <ele>160</ele>
        <time>2017-03-17T15:46:30+01:00</time>
      </trkpt>
      <trkpt lat="48.68747" lon="2.13367">
        <ele>164</ele>
        <time>2017-03-17T15:46:46+01:00</time>
      </trkpt>
      <trkpt lat="48.6875" lon="2.13401">
        <ele>164</ele>
        <time>2017-03-17T15:47:02+01:00</time>
      </trkpt>
      <trkpt lat="48.68756" lon="2.13434">
        <ele>163</ele>
        <time>2017-03-17T15:47:19+01:00</time>
      </trkpt>
      <trkpt lat="48.68762" lon="2.13469">
        <ele>165</ele>
        <time>2017-03-17T15:47:34+01:00</time>
      </trkpt>
      <trkpt lat="48.68765" lon="2.13504">
        <ele>167</ele>
        <time>2017-03-17T15:47:54+01:00</time>
      </trkpt>
      <trkpt lat="48.68768" lon="2.13539">
        <ele>170</ele>
        <time>2017-03-17T15:48:11+01:00</time>
      </trkpt>
      <trkpt lat="48.68774" lon="2.13573">
        <ele>167</ele>
        <time>2017-03-17T15:48:29+01:00</time>
      </trkpt>
      <trkpt lat="48.68776" lon="2.13608">
        <ele>166</ele>
        <time>2017-03-17T15:48:45+01:00</time>
      </trkpt>
      <trkpt lat="48.6878" lon="2.13642">
        <ele>163</ele>
        <time>2017-03-17T15:49:02+01:00</time>
      </trkpt>
      <trkpt lat="48.68782" lon="2.13676">
        <ele>162</ele>
        <time>2017-03-17T15:49:20+01:00</time>
      </trkpt>
      <trkpt lat="48.68785" lon="2.1371">
        <ele>166</ele>
        <time>2017-03-17T15:49:45+01:00</time>
      </trkpt>
      <trkpt lat="48.68795" lon="2.13742">
        <ele>166</ele>
        <time>2017-03-17T15:50:26+01:00</time>
      </trkpt>
      <trkpt lat="48.68806" lon="2.13773">
        <ele>163</ele>
        <time>2017-03-17T15:50:47+01:00</time>
      </trkpt>
      <trkpt lat="48.68817" lon="2.13804">
        <ele>154</ele>
        <time>2017-03-17T15:51:11+01:00</time>
      </trkpt>
      <trkpt lat="48.6883" lon="2.13833">
        <ele>149</ele>
        <time>2017-03-17T15:51:33+01:00</time>
      </trkpt>
      <trkpt lat="48.68852" lon="2.13825">
        <ele>160</ele>
        <time>2017-03-17T15:51:51+01:00</time>
      </trkpt>
      <trkpt lat="48.68852" lon="2.13791">
        <ele>161</ele>
        <time>2017-03-17T15:52:12+01:00</time>
      </trkpt>
      <trkpt lat="48.68854" lon="2.13756">
        <ele>162</ele>
        <time>2017-03-17T15:52:29+01:00</time>
      </trkpt>
      <trkpt lat="48.68855" lon="2.13722">
        <ele>163</ele>
        <time>2017-03-17T15:52:46+01:00</time>
      </trkpt>
      <trkpt lat="48.68852" lon="2.13687">
        <ele>167</ele>
        <time>2017-03-17T15:53:03+01:00</time>
      </trkpt>
      <trkpt lat="48.68869" lon="2.13664">
        <ele>166</ele>
        <time>2017-03-17T15:53:27+01:00</time>
      </trkpt>
      <trkpt lat="48.6889" lon="2.1365">
        <ele>163</ele>
        <time>2017-03-17T15:53:44+01:00</time>
      </trkpt>
      <trkpt lat="48.68913" lon="2.13643">
        <ele>160</ele>
        <time>2017-03-17T15:54:05+01:00</time>
      </trkpt>
      <trkpt lat="48.68933" lon="2.13626">
        <ele>162</ele>
        <time>2017-03-17T15:54:21+01:00</time>
      </trkpt>
      <trkpt lat="48.68954" lon="2.13613">
        <ele>163</ele>
        <time>2017-03-17T15:54:36+01:00</time>
      </trkpt>
      <trkpt lat="48.68975" lon="2.13596">
        <ele>165</ele>
        <time>2017-03-17T15:54:51+01:00</time>
      </trkpt>
      <trkpt lat="48.68996" lon="2.13582">
        <ele>167</ele>
        <time>2017-03-17T15:55:07+01:00</time>
      </trkpt>
      <trkpt lat="48.69019" lon="2.13572">
        <ele>166</ele>
        <time>2017-03-17T15:55:23+01:00</time>
      </trkpt>
      <trkpt lat="48.6904" lon="2.13559">
        <ele>162</ele>
        <time>2017-03-17T15:55:40+01:00</time>
      </trkpt>
      <trkpt lat="48.69062" lon="2.13549">
        <ele>164</ele>
        <time>2017-03-17T15:55:56+01:00</time>
      </trkpt>
      <trkpt lat="48.69083" lon="2.13535">
        <ele>168</ele>
        <time>2017-03-17T15:56:14+01:00</time>
      </trkpt>
      <trkpt lat="48.69102" lon="2.13515">
        <ele>170</ele>
        <time>2017-03-17T15:56:49+01:00</time>
      </trkpt>
      <trkpt lat="48.69124" lon="2.13501">
        <ele>166</ele>
        <time>2017-03-17T15:57:08+01:00</time>
      </trkpt>
      <trkpt lat="48.69145" lon="2.13491">
        <ele>162</ele>
        <time>2017-03-17T15:57:29+01:00</time>
      </trkpt>
      <trkpt lat="48.69166" lon="2.13476">
        <ele>168</ele>
        <time>2017-03-17T15:57:43+01:00</time>
      </trkpt>
      <trkpt lat="48.69186" lon="2.1346">
        <ele>164</ele>
        <time>2017-03-17T15:57:59+01:00</time>
      </trkpt>
      <trkpt lat="48.69208" lon="2.1345">
        <ele>158</ele>
        <time>2017-03-17T15:58:17+01:00</time>
      </trkpt>
      <trkpt lat="48.6923" lon="2.13441">
        <ele>158</ele>
        <time>2017-03-17T15:58:34+01:00</time>
      </trkpt>
      <trkpt lat="48.69253" lon="2.13437">
        <ele>164</ele>
        <time>2017-03-17T15:58:56+01:00</time>
      </trkpt>
      <trkpt lat="48.69266" lon="2.13465">
        <ele>153</ele>
        <time>2017-03-17T16:01:59+01:00</time>
      </trkpt>
      <trkpt lat="48.69284" lon="2.13486">
        <ele>153</ele>
        <time>2017-03-17T16:02:20+01:00</time>
      </trkpt>
      <trkpt lat="48.69301" lon="2.1351">
        <ele>153</ele>
        <time>2017-03-17T16:02:39+01:00</time>
      </trkpt>
      <trkpt lat="48.69312" lon="2.1354">
        <ele>137</ele>
        <time>2017-03-17T16:03:06+01:00</time>
      </trkpt>
      <trkpt lat="48.69327" lon="2.13566">
        <ele>130</ele>
        <time>2017-03-17T16:03:30+01:00</time>
      </trkpt>
      <trkpt lat="48.69343" lon="2.1359">
        <ele>143</ele>
        <time>2017-03-17T16:03:46+01:00</time>
      </trkpt>
      <trkpt lat="48.69356" lon="2.13619">
        <ele>130</ele>
        <time>2017-03-17T16:04:07+01:00</time>
      </trkpt>
      <trkpt lat="48.69376" lon="2.13601">
        <ele>118</ele>
        <time>2017-03-17T16:04:49+01:00</time>
      </trkpt>
      <trkpt lat="48.69388" lon="2.13571">
        <ele>121</ele>
        <time>2017-03-17T16:05:07+01:00</time>
      </trkpt>
      <trkpt lat="48.69401" lon="2.13542">
        <ele>117</ele>
        <time>2017-03-17T16:05:29+01:00</time>
      </trkpt>
      <trkpt lat="48.69421" lon="2.13525">
        <ele>113</ele>
        <time>2017-03-17T16:05:51+01:00</time>
      </trkpt>
      <trkpt lat="48.69439" lon="2.13504">
        <ele>105</ele>
        <time>2017-03-17T16:06:14+01:00</time>
      </trkpt>
      <trkpt lat="48.69463" lon="2.13507">
        <ele>102</ele>
        <time>2017-03-17T16:06:55+01:00</time>
      </trkpt>
      <trkpt lat="48.69486" lon="2.13513">
        <ele>102</ele>
        <time>2017-03-17T16:07:10+01:00</time>
      </trkpt>
      <trkpt lat="48.69508" lon="2.13521">
        <ele>97</ele>
        <time>2017-03-17T16:07:27+01:00</time>
      </trkpt>
      <trkpt lat="48.69531" lon="2.13529">
        <ele>85</ele>
        <time>2017-03-17T16:07:55+01:00</time>
      </trkpt>
      <trkpt lat="48.69553" lon="2.13527">
        <ele>79</ele>
        <time>2017-03-17T16:08:15+01:00</time>
      </trkpt>
      <trkpt lat="48.69576" lon="2.13528">
        <ele>80</ele>
        <time>2017-03-17T16:08:31+01:00</time>
      </trkpt>
      <trkpt lat="48.69599" lon="2.13534">
        <ele>83</ele>
        <time>2017-03-17T16:08:49+01:00</time>
      </trkpt>
      <trkpt lat="48.69622" lon="2.13539">
        <ele>84</ele>
        <time>2017-03-17T16:09:08+01:00</time>
      </trkpt>
      <trkpt lat="48.69645" lon="2.13539">
        <ele>83</ele>
        <time>2017-03-17T16:09:40+01:00</time>
      </trkpt>
      <trkpt lat="48.69641" lon="2.13574">
        <ele>75</ele>
        <time>2017-03-17T16:10:29+01:00</time>
      </trkpt>
      <trkpt lat="48.69647" lon="2.13606">
        <ele>77</ele>
        <time>2017-03-17T16:10:46+01:00</time>
      </trkpt>
      <trkpt lat="48.69653" lon="2.13641">
        <ele>82</ele>
        <time>2017-03-17T16:11:03+01:00</time>
      </trkpt>
      <trkpt lat="48.69667" lon="2.1367">
        <ele>77</ele>
        <time>2017-03-17T16:11:20+01:00</time>
      </trkpt>
      <trkpt lat="48.6969" lon="2.13671">
        <ele>74</ele>
        <time>2017-03-17T16:11:35+01:00</time>
      </trkpt>
      <trkpt lat="48.69712" lon="2.13678">
        <ele>77</ele>
        <time>2017-03-17T16:11:56+01:00</time>
      </trkpt>
      <trkpt lat="48.69735" lon="2.13684">
        <ele>75</ele>
        <time>2017-03-17T16:12:16+01:00</time>
      </trkpt>
      <trkpt lat="48.69757" lon="2.13689">
        <ele>79</ele>
        <time>2017-03-17T16:12:34+01:00</time>
      </trkpt>
      <trkpt lat="48.69777" lon="2.1371">
        <ele>65</ele>
        <time>2017-03-17T16:13:55+01:00</time>
      </trkpt>
      <trkpt lat="48.69801" lon="2.13711">
        <ele>73</ele>
        <time>2017-03-17T16:14:12+01:00</time>
      </trkpt>
      <trkpt lat="48.69808" lon="2.13743">
        <ele>62</ele>
        <time>2017-03-17T16:14:36+01:00</time>
      </trkpt>
      <trkpt lat="48.69842" lon="2.13679">
        <ele>77</ele>
        <time>2017-03-17T16:15:28+01:00</time>
      </trkpt>
      <trkpt lat="48.69862" lon="2.13665">
        <ele>66</ele>
        <time>2017-03-17T16:16:16+01:00</time>
      </trkpt>
      <trkpt lat="48.69884" lon="2.13657">
        <ele>68</ele>
        <time>2017-03-17T16:16:34+01:00</time>
      </trkpt>
      <trkpt lat="48.69907" lon="2.13647">
        <ele>68</ele>
        <time>2017-03-17T16:16:50+01:00</time>
      </trkpt>
      <trkpt lat="48.69929" lon="2.13644">
        <ele>66</ele>
        <time>2017-03-17T16:17:09+01:00</time>
      </trkpt>
      <trkpt lat="48.69951" lon="2.13636">
        <ele>62</ele>
        <time>2017-03-17T16:17:30+01:00</time>
      </trkpt>
      <trkpt lat="48.69974" lon="2.13625">
        <ele>65</ele>
        <time>2017-03-17T16:17:47+01:00</time>
      </trkpt>
      <trkpt lat="48.69996" lon="2.13615">
        <ele>54</ele>
        <time>2017-03-17T16:18:09+01:00</time>
      </trkpt>
      <trkpt lat="48.70017" lon="2.13604">
        <ele>46</ele>
        <time>2017-03-17T16:18:35+01:00</time>
      </trkpt>
      <trkpt lat="48.70036" lon="2.13625">
        <ele>58</ele>
        <time>2017-03-17T16:19:01+01:00</time>
      </trkpt>
      <trkpt lat="48.70058" lon="2.13637">
        <ele>64</ele>
        <time>2017-03-17T16:19:16+01:00</time>
      </trkpt>
      <trkpt lat="48.70089" lon="2.13925">
        <ele>64</ele>
        <time>2017-03-17T16:22:40+01:00</time>
      </trkpt>
      <trkpt lat="48.70082" lon="2.13958">
        <ele>54</ele>
        <time>2017-03-17T16:22:57+01:00</time>
      </trkpt>
      <trkpt lat="48.7008" lon="2.13993">
        <ele>52</ele>
        <time>2017-03-17T16:23:14+01:00</time>
      </trkpt>
      <trkpt lat="48.70077" lon="2.14027">
        <ele>51</ele>
        <time>2017-03-17T16:23:31+01:00</time>
      </trkpt>
      <trkpt lat="48.70073" lon="2.14061">
        <ele>49</ele>
        <time>2017-03-17T16:23:50+01:00</time>
      </trkpt>
      <trkpt lat="48.70069" lon="2.14096">
        <ele>51</ele>
        <time>2017-03-17T16:24:07+01:00</time>
      </trkpt>
      <trkpt lat="48.70063" lon="2.14129">
        <ele>52</ele>
        <time>2017-03-17T16:24:24+01:00</time>
      </trkpt>
      <trkpt lat="48.70061" lon="2.14163">
        <ele>47</ele>
        <time>2017-03-17T16:24:42+01:00</time>
      </trkpt>
      <trkpt lat="48.70054" lon="2.14196">
        <ele>52</ele>
        <time>2017-03-17T16:24:55+01:00</time>
      </trkpt>
      <trkpt lat="48.70047" lon="2.14229">
        <ele>51</ele>
        <time>2017-03-17T16:25:09+01:00</time>
      </trkpt>
      <trkpt lat="48.70046" lon="2.14265">
        <ele>56</ele>
        <time>2017-03-17T16:25:25+01:00</time>
      </trkpt>
      <trkpt lat="48.70041" lon="2.14299">
        <ele>63</ele>
        <time>2017-03-17T16:25:41+01:00</time>
      </trkpt>
      <trkpt lat="48.70025" lon="2.14325">
        <ele>57</ele>
        <time>2017-03-17T16:26:01+01:00</time>
      </trkpt>
      <trkpt lat="48.70011" lon="2.14351">
        <ele>56</ele>
        <time>2017-03-17T16:26:20+01:00</time>
      </trkpt>
      <trkpt lat="48.69996" lon="2.1438">
        <ele>54</ele>
        <time>2017-03-17T16:26:36+01:00</time>
      </trkpt>
      <trkpt lat="48.69984" lon="2.14409">
        <ele>52</ele>
        <time>2017-03-17T16:26:57+01:00</time>
      </trkpt>
      <trkpt lat="48.69976" lon="2.14441">
        <ele>45</ele>
        <time>2017-03-17T16:27:14+01:00</time>
      </trkpt>
      <trkpt lat="48.69974" lon="2.14477">
        <ele>36</ele>
        <time>2017-03-17T16:27:31+01:00</time>
      </trkpt>
      <trkpt lat="48.69967" lon="2.14511">
        <ele>37</ele>
        <time>2017-03-17T16:27:48+01:00</time>
      </trkpt>
      <trkpt lat="48.69962" lon="2.14546">
        <ele>42</ele>
        <time>2017-03-17T16:28:04+01:00</time>
      </trkpt>
      <trkpt lat="48.69954" lon="2.14578">
        <ele>45</ele>
        <time>2017-03-17T16:28:28+01:00</time>
      </trkpt>
      <trkpt lat="48.69954" lon="2.14613">
        <ele>43</ele>
        <time>2017-03-17T16:28:43+01:00</time>
      </trkpt>
      <trkpt lat="48.69945" lon="2.14646">
        <ele>42</ele>
        <time>2017-03-17T16:28:54+01:00</time>
      </trkpt>
      <trkpt lat="48.69938" lon="2.1468">
        <ele>41</ele>
        <time>2017-03-17T16:29:09+01:00</time>
      </trkpt>
      <trkpt lat="48.6993" lon="2.14715">
        <ele>44</ele>
        <time>2017-03-17T16:29:23+01:00</time>
      </trkpt>
      <trkpt lat="48.69928" lon="2.1475">
        <ele>46</ele>
        <time>2017-03-17T16:29:41+01:00</time>
      </trkpt>
      <trkpt lat="48.69924" lon="2.14785">
        <ele>47</ele>
        <time>2017-03-17T16:29:57+01:00</time>
      </trkpt>
      <trkpt lat="48.69918" lon="2.14819">
        <ele>53</ele>
        <time>2017-03-17T16:30:12+01:00</time>
      </trkpt>
      <trkpt lat="48.69915" lon="2.14853">
        <ele>48</ele>
        <time>2017-03-17T16:30:29+01:00</time>
      </trkpt>
      <trkpt lat="48.69915" lon="2.14888">
        <ele>46</ele>
        <time>2017-03-17T16:30:50+01:00</time>
      </trkpt>
      <trkpt lat="48.69905" lon="2.14919">
        <ele>45</ele>
        <time>2017-03-17T16:31:06+01:00</time>
      </trkpt>
      <trkpt lat="48.69896" lon="2.14952">
        <ele>46</ele>
        <time>2017-03-17T16:31:22+01:00</time>
      </trkpt>
      <trkpt lat="48.69904" lon="2.14984">
        <ele>48</ele>
        <time>2017-03-17T16:31:39+01:00</time>
      </trkpt>
      <trkpt lat="48.69909" lon="2.15017">
        <ele>50</ele>
        <time>2017-03-17T16:31:57+01:00</time>
      </trkpt>
      <trkpt lat="48.69907" lon="2.15053">
        <ele>41</ele>
        <time>2017-03-17T16:32:17+01:00</time>
      </trkpt>
      <trkpt lat="48.699" lon="2.15086">
        <ele>47</ele>
        <time>2017-03-17T16:32:32+01:00</time>
      </trkpt>
      <trkpt lat="48.69878" lon="2.15082">
        <ele>48</ele>
        <time>2017-03-17T16:32:47+01:00</time>
      </trkpt>
      <trkpt lat="48.69858" lon="2.15099">
        <ele>45</ele>
        <time>2017-03-17T16:37:49+01:00</time>
      </trkpt>
      <trkpt lat="48.69854" lon="2.15133">
        <ele>43</ele>
        <time>2017-03-17T16:38:08+01:00</time>
      </trkpt>
      <trkpt lat="48.69849" lon="2.15168">
        <ele>44</ele>
        <time>2017-03-17T16:38:25+01:00</time>
      </trkpt>
      <trkpt lat="48.69844" lon="2.15203">
        <ele>46</ele>
        <time>2017-03-17T16:38:40+01:00</time>
      </trkpt>
      <trkpt lat="48.69841" lon="2.15237">
        <ele>49</ele>
        <time>2017-03-17T16:38:55+01:00</time>
      </trkpt>
      <trkpt lat="48.69836" lon="2.15271">
        <ele>49</ele>
        <time>2017-03-17T16:39:10+01:00</time>
      </trkpt>
      <trkpt lat="48.69832" lon="2.15306">
        <ele>44</ele>
        <time>2017-03-17T16:39:29+01:00</time>
      </trkpt>
      <trkpt lat="48.69818" lon="2.15333">
        <ele>47</ele>
        <time>2017-03-17T16:39:48+01:00</time>
      </trkpt>
      <trkpt lat="48.698" lon="2.15355">
        <ele>42</ele>
        <time>2017-03-17T16:40:12+01:00</time>
      </trkpt>
      <trkpt lat="48.69796" lon="2.15389">
        <ele>41</ele>
        <time>2017-03-17T16:40:30+01:00</time>
      </trkpt>
      <trkpt lat="48.69792" lon="2.15424">
        <ele>36</ele>
        <time>2017-03-17T16:40:50+01:00</time>
      </trkpt>
      <trkpt lat="48.69789" lon="2.15459">
        <ele>43</ele>
        <time>2017-03-17T16:41:07+01:00</time>
      </trkpt>
      <trkpt lat="48.69786" lon="2.15493">
        <ele>48</ele>
        <time>2017-03-17T16:41:22+01:00</time>
      </trkpt>
      <trkpt lat="48.6978" lon="2.15527">
        <ele>51</ele>
        <time>2017-03-17T16:41:40+01:00</time>
      </trkpt>
      <trkpt lat="48.69771" lon="2.1556">
        <ele>56</ele>
        <time>2017-03-17T16:41:56+01:00</time>
      </trkpt>
      <trkpt lat="48.69771" lon="2.15594">
        <ele>55</ele>
        <time>2017-03-17T16:42:17+01:00</time>
      </trkpt>
      <trkpt lat="48.69778" lon="2.15628">
        <ele>60</ele>
        <time>2017-03-17T16:42:32+01:00</time>
      </trkpt>
      <trkpt lat="48.69788" lon="2.15659">
        <ele>52</ele>
        <time>2017-03-17T16:42:55+01:00</time>
      </trkpt>
      <trkpt lat="48.69797" lon="2.15691">
        <ele>51</ele>
        <time>2017-03-17T16:43:20+01:00</time>
      </trkpt>
      <trkpt lat="48.69801" lon="2.15725">
        <ele>49</ele>
        <time>2017-03-17T16:43:39+01:00</time>
      </trkpt>
      <trkpt lat="48.69804" lon="2.15759">
        <ele>50</ele>
        <time>2017-03-17T16:43:59+01:00</time>
      </trkpt>
      <trkpt lat="48.69811" lon="2.15793">
        <ele>54</ele>
        <time>2017-03-17T16:44:16+01:00</time>
      </trkpt>
      <trkpt lat="48.69814" lon="2.15827">
        <ele>56</ele>
        <time>2017-03-17T16:44:31+01:00</time>
      </trkpt>
      <trkpt lat="48.6979" lon="2.15828">
        <ele>49</ele>
        <time>2017-03-17T16:44:53+01:00</time>
      </trkpt>
      <trkpt lat="48.69772" lon="2.1585">
        <ele>50</ele>
        <time>2017-03-17T16:45:13+01:00</time>
      </trkpt>
      <trkpt lat="48.69756" lon="2.15876">
        <ele>48</ele>
        <time>2017-03-17T16:45:34+01:00</time>
      </trkpt>
    </trkseg>
  </trk>
</gpx>